createdAt,value
2022-11-02T00:00:35.165Z,12.90
2022-11-02T00:03:03.258Z,12.40
2022-11-02T00:05:31.506Z,12.20
2022-11-02T00:07:59.208Z,11.80
2022-11-02T00:10:26.734Z,12.50
2022-11-02T00:12:54.291Z,11.70
2022-11-02T00:15:24.785Z,12.40
2022-11-02T00:18:17.697Z,12.50
2022-11-02T00:20:45.247Z,12.70
2022-11-02T00:23:14.647Z,13.40
2022-11-02T00:25:47.915Z,12.10
2022-11-02T00:28:15.973Z,12.70
2022-11-02T00:30:44.077Z,13.10
2022-11-02T00:33:11.873Z,12.40
2022-11-02T00:38:07.850Z,12.40
2022-11-02T00:40:35.726Z,12.30
2022-11-02T00:43:03.508Z,11.30
2022-11-02T00:45:31.040Z,12.40
2022-11-02T00:47:58.674Z,12.40
2022-11-02T00:52:57.389Z,12.50
2022-11-02T00:55:25.695Z,11.40
2022-11-02T00:57:59.904Z,12.50
2022-11-02T01:00:27.512Z,12.10
2022-11-02T01:05:22.875Z,12.60
2022-11-02T01:10:47.223Z,12.40
2022-11-02T01:14:32.736Z,12.00
2022-11-02T01:29:29.539Z,11.80
2022-11-02T01:31:57.108Z,12.10
2022-11-02T01:39:42.470Z,10.60
2022-11-02T01:42:28.238Z,11.00
2022-11-02T01:47:31.342Z,11.90
2022-11-02T01:50:21.855Z,11.40
2022-11-02T01:55:25.665Z,11.20
2022-11-02T01:58:10.768Z,12.90
2022-11-02T02:00:39.451Z,12.00
2022-11-02T02:03:09.442Z,10.90
2022-11-02T02:05:44.179Z,11.70
2022-11-02T02:08:20.574Z,12.10
2022-11-02T02:10:48.083Z,11.40
2022-11-02T02:13:17.098Z,11.30
2022-11-02T02:18:27.305Z,11.40
2022-11-02T02:21:01.017Z,11.80
2022-11-02T02:24:07.668Z,10.80
2022-11-02T02:26:53.270Z,12.30
2022-11-02T02:29:55.268Z,11.10
2022-11-02T02:32:52.862Z,11.20
2022-11-02T02:35:27.503Z,12.40
2022-11-02T02:38:01.309Z,12.20
2022-11-02T02:40:43.461Z,11.80
2022-11-02T02:43:34.238Z,11.40
2022-11-02T02:46:09.460Z,11.40
2022-11-02T02:48:39.872Z,11.30
2022-11-02T02:51:16.959Z,11.60
2022-11-02T02:54:06.378Z,11.20
2022-11-02T02:56:42.735Z,12.20
2022-11-02T02:59:23.427Z,11.50
2022-11-02T03:04:20.091Z,12.20
2022-11-02T03:06:56.946Z,11.00
2022-11-02T03:09:41.618Z,12.40
2022-11-02T03:12:45.699Z,11.50
2022-11-02T03:15:38.044Z,12.00
2022-11-02T03:18:30.917Z,11.60
2022-11-02T03:21:08.506Z,12.30
2022-11-02T03:23:41.987Z,12.00
2022-11-02T03:26:13.106Z,12.40
2022-11-02T03:29:11.157Z,11.80
2022-11-02T03:31:55.710Z,12.10
2022-11-02T03:34:38.690Z,11.70
2022-11-02T03:37:32.857Z,12.30
2022-11-02T03:42:32.655Z,11.30
2022-11-02T03:45:12.198Z,12.40
2022-11-02T03:47:44.908Z,12.10
2022-11-02T03:50:17.575Z,12.60
2022-11-02T03:52:47.362Z,12.30
2022-11-02T03:55:25.515Z,12.10
2022-11-02T04:00:29.899Z,12.40
2022-11-02T04:03:08.032Z,11.70
2022-11-02T04:08:22.233Z,11.70
2022-11-02T04:19:39.546Z,11.80
2022-11-02T04:22:27.414Z,12.10
2022-11-02T04:28:09.567Z,12.60
2022-11-02T04:30:46.124Z,11.00
2022-11-02T04:36:29.674Z,11.80
2022-11-02T04:41:43.061Z,11.70
2022-11-02T04:44:46.413Z,11.80
2022-11-02T04:49:48.666Z,10.70
2022-11-02T04:54:50.659Z,11.30
2022-11-02T04:57:19.042Z,11.00
2022-11-02T05:04:44.684Z,11.70
2022-11-02T05:07:13.431Z,12.70
2022-11-02T05:14:39.008Z,12.60
2022-11-02T05:17:07.588Z,11.60
2022-11-02T05:24:34.535Z,12.10
2022-11-02T05:27:02.358Z,12.40
2022-11-02T05:29:33.457Z,12.40
2022-11-02T05:32:16.269Z,12.00
2022-11-02T05:34:44.006Z,12.40
2022-11-02T05:44:59.475Z,11.90
2022-11-02T05:47:27.024Z,11.20
2022-11-02T05:52:22.897Z,12.80
2022-11-02T05:54:55.573Z,11.90
2022-11-02T05:57:52.814Z,12.20
2022-11-02T06:00:22.080Z,11.80
2022-11-02T06:02:58.824Z,11.90
2022-11-02T06:05:30.544Z,11.80
2022-11-02T06:08:02.637Z,12.50
2022-11-02T06:10:43.131Z,12.50
2022-11-02T06:18:06.354Z,12.10
2022-11-02T06:20:34.338Z,12.40
2022-11-02T06:23:02.125Z,12.40
2022-11-02T06:27:57.961Z,13.70
2022-11-02T06:30:29.867Z,12.40
2022-11-02T06:38:01.434Z,12.10
2022-11-02T06:43:17.373Z,12.30
2022-11-02T06:45:45.522Z,12.50
2022-11-02T06:50:40.903Z,12.00
2022-11-02T06:53:19.805Z,12.30
2022-11-02T06:55:55.572Z,11.30
2022-11-02T07:03:27.861Z,11.30
2022-11-02T07:06:20.319Z,12.20
2022-11-02T07:08:50.365Z,12.20
2022-11-02T07:16:30.505Z,11.70
2022-11-02T07:18:58.196Z,12.00
2022-11-02T07:21:25.701Z,12.20
2022-11-02T07:23:53.185Z,12.50
2022-11-02T07:31:20.931Z,12.30
2022-11-02T07:33:48.494Z,12.60
2022-11-02T07:36:42.201Z,12.30
2022-11-02T07:39:11.416Z,13.30
2022-11-02T07:41:41.223Z,12.10
2022-11-02T07:44:35.097Z,12.70
2022-11-02T07:47:03.148Z,12.80
2022-11-02T07:49:30.634Z,12.00
2022-11-02T07:56:57.323Z,12.60
2022-11-02T07:59:26.167Z,12.90
2022-11-02T08:02:14.061Z,11.70
2022-11-02T08:07:18.753Z,12.40
2022-11-02T08:09:50.515Z,13.40
2022-11-02T08:12:22.289Z,12.00
2022-11-02T08:14:51.875Z,12.50
2022-11-02T08:17:26.518Z,11.40
2022-11-02T08:19:56.377Z,13.40
2022-11-02T08:22:30.058Z,12.20
2022-11-02T08:25:24.398Z,12.70
2022-11-02T08:28:01.826Z,13.10
2022-11-02T08:30:31.465Z,12.50
2022-11-02T08:33:13.056Z,12.80
2022-11-02T08:35:48.415Z,12.80
2022-11-02T08:38:29.702Z,12.30
2022-11-02T08:40:58.365Z,12.30
2022-11-02T08:43:51.361Z,12.60
2022-11-02T08:46:56.378Z,12.60
2022-11-02T08:49:29.506Z,12.30
2022-11-02T08:52:06.606Z,12.50
2022-11-02T08:54:36.211Z,12.20
2022-11-02T08:57:17.129Z,13.50
2022-11-02T08:59:50.532Z,12.90
2022-11-02T09:02:25.532Z,13.90
2022-11-02T09:04:56.475Z,13.60
2022-11-02T09:12:47.850Z,12.50
2022-11-02T09:15:16.444Z,12.40
2022-11-02T09:17:49.998Z,13.40
2022-11-02T09:20:19.690Z,12.30
2022-11-02T09:30:13.605Z,13.10
2022-11-02T09:33:07.028Z,13.20
2022-11-02T09:35:45.944Z,12.70
2022-11-02T09:38:16.338Z,12.50
2022-11-02T09:41:21.666Z,13.80
2022-11-02T09:44:41.198Z,12.80
2022-11-02T09:48:16.102Z,14.00
2022-11-02T09:51:03.159Z,12.50
2022-11-02T09:54:00.107Z,13.60
2022-11-02T09:59:28.400Z,14.10
2022-11-02T10:02:15.937Z,12.60
2022-11-02T10:05:10.287Z,14.30
2022-11-02T10:08:59.815Z,12.70
2022-11-02T10:12:04.571Z,13.50
2022-11-02T10:15:04.445Z,14.00
2022-11-02T10:17:37.215Z,13.90
2022-11-02T10:20:44.459Z,14.30
2022-11-02T10:24:26.951Z,13.80
2022-11-02T10:27:17.330Z,13.90
2022-11-02T10:30:16.631Z,13.60
2022-11-02T10:32:56.165Z,13.60
2022-11-02T10:36:18.545Z,14.30
2022-11-02T10:39:38.872Z,14.30
2022-11-02T10:42:45.565Z,14.00
2022-11-02T10:46:00.988Z,13.80
2022-11-02T10:49:03.743Z,14.20
2022-11-02T10:51:31.616Z,14.40
2022-11-02T10:56:42.734Z,13.90
2022-11-02T10:59:35.117Z,14.20
2022-11-02T11:02:03.121Z,15.00
2022-11-02T11:04:33.968Z,13.80
2022-11-02T11:07:30.543Z,14.30
2022-11-02T11:21:05.125Z,14.10
2022-11-02T11:26:43.670Z,14.60
2022-11-02T11:31:55.645Z,14.80
2022-11-02T11:34:32.412Z,13.70
2022-11-02T11:39:55.054Z,14.00
2022-11-02T11:42:31.915Z,16.00
2022-11-02T11:45:21.119Z,16.10
2022-11-02T11:48:07.418Z,16.80
2022-11-02T11:53:23.618Z,17.10
2022-11-02T11:56:03.649Z,16.70
2022-11-02T11:58:33.960Z,17.00
2022-11-02T12:01:11.072Z,18.60
2022-11-02T12:03:57.386Z,18.60
2022-11-02T12:06:55.581Z,18.00
2022-11-02T12:09:33.182Z,17.60
2022-11-02T12:12:12.650Z,17.30
2022-11-02T12:15:24.702Z,17.40
2022-11-02T12:21:10.969Z,16.40
2022-11-02T12:24:17.485Z,16.20
2022-11-02T12:27:29.329Z,16.20
2022-11-02T12:30:16.628Z,16.00
2022-11-02T12:33:18.850Z,15.40
2022-11-02T12:36:19.937Z,14.30
2022-11-02T12:39:32.607Z,14.70
2022-11-02T12:42:30.908Z,15.80
2022-11-02T12:45:21.986Z,17.50
2022-11-02T12:48:35.607Z,17.10
2022-11-02T12:53:59.735Z,19.20
2022-11-02T12:56:50.815Z,19.00
2022-11-02T12:59:34.855Z,20.40
2022-11-02T13:02:42.934Z,20.10
2022-11-02T13:05:21.220Z,19.90
2022-11-02T13:08:14.114Z,20.40
2022-11-02T13:10:59.099Z,20.70
2022-11-02T13:13:48.178Z,21.10
2022-11-02T13:16:22.386Z,21.00
2022-11-02T13:18:55.513Z,20.60
2022-11-02T13:21:41.264Z,20.60
2022-11-02T13:24:19.002Z,20.60
2022-11-02T13:26:57.291Z,20.00
2022-11-02T13:29:39.170Z,19.50
2022-11-02T13:32:37.865Z,18.50
2022-11-02T13:35:33.821Z,19.50
2022-11-02T13:38:34.371Z,18.50
2022-11-02T13:41:26.794Z,19.90
2022-11-02T13:44:56.110Z,20.00
2022-11-02T13:47:41.702Z,19.90
2022-11-02T13:50:17.251Z,20.50
2022-11-02T13:52:52.050Z,20.10
2022-11-02T13:55:41.383Z,18.60
2022-11-02T13:58:47.161Z,18.90
2022-11-02T14:01:40.981Z,18.30
2022-11-02T14:04:46.020Z,17.60
2022-11-02T14:07:30.890Z,17.70
2022-11-02T14:10:21.002Z,18.20
2022-11-02T14:12:50.991Z,20.20
2022-11-02T14:15:18.740Z,18.40
2022-11-02T14:18:15.376Z,18.60
2022-11-02T14:20:47.557Z,18.90
2022-11-02T14:26:54.588Z,19.60
2022-11-02T14:29:42.205Z,19.00
2022-11-02T14:32:37.232Z,17.20
2022-11-02T14:35:44.386Z,17.40
2022-11-02T14:39:04.542Z,16.60
2022-11-02T14:41:47.195Z,16.30
2022-11-02T14:45:15.642Z,16.50
2022-11-02T14:47:49.336Z,16.80
2022-11-02T14:50:23.271Z,17.40
2022-11-02T14:53:25.274Z,17.40
2022-11-02T14:55:55.790Z,18.00
2022-11-02T14:58:32.360Z,17.70
2022-11-02T15:01:04.027Z,17.70
2022-11-02T15:03:41.215Z,17.10
2022-11-02T15:06:12.557Z,16.60
2022-11-02T15:09:06.303Z,16.70
2022-11-02T15:11:48.016Z,15.60
2022-11-02T15:14:35.660Z,15.30
2022-11-02T15:17:24.579Z,15.20
2022-11-02T15:20:15.520Z,15.00
2022-11-02T15:22:53.970Z,14.60
2022-11-02T15:25:25.844Z,14.30
2022-11-02T15:28:08.339Z,14.60
2022-11-02T15:30:51.517Z,13.90
2022-11-02T15:33:34.289Z,14.30
2022-11-02T15:36:06.696Z,14.10
2022-11-02T15:41:44.101Z,14.20
2022-11-02T15:47:26.910Z,14.10
2022-11-02T15:50:10.013Z,13.10
2022-11-02T15:53:23.367Z,13.20
2022-11-02T15:56:40.196Z,13.60
2022-11-02T15:59:36.011Z,13.10
2022-11-02T16:02:37.679Z,12.60
2022-11-02T16:08:05.015Z,13.90
2022-11-02T16:10:34.895Z,13.50
2022-11-02T16:13:29.534Z,12.50
2022-11-02T16:19:02.129Z,12.40
2022-11-02T16:21:30.575Z,13.10
2022-11-02T16:23:59.370Z,12.20
2022-11-02T16:26:29.804Z,12.20
2022-11-02T16:29:00.649Z,12.40
2022-11-02T16:31:34.024Z,12.30
2022-11-02T16:34:18.896Z,12.50
2022-11-02T16:36:47.621Z,11.10
2022-11-02T16:41:51.296Z,12.30
2022-11-02T16:44:30.859Z,10.20
2022-11-02T16:49:54.138Z,11.80
2022-11-02T16:52:28.002Z,12.00
2022-11-02T16:57:27.843Z,11.80
2022-11-02T17:00:13.908Z,11.70
2022-11-02T17:02:44.023Z,11.30
2022-11-02T17:08:15.421Z,11.30
2022-11-02T17:13:44.929Z,10.90
2022-11-02T17:23:57.999Z,10.70
2022-11-02T17:26:37.944Z,11.60
2022-11-02T17:29:24.985Z,10.90
2022-11-02T17:32:17.092Z,10.60
2022-11-02T17:37:32.406Z,10.50
2022-11-02T17:40:03.598Z,11.00
2022-11-02T17:43:04.932Z,10.60
2022-11-02T17:53:15.765Z,11.30
2022-11-02T18:35:21.046Z,10.00
2022-11-02T18:55:55.182Z,9.20
2022-11-02T19:23:53.494Z,8.80
2022-11-02T19:29:14.950Z,8.80
2022-11-02T19:39:09.608Z,8.40
2022-11-02T19:41:38.551Z,9.10
2022-11-02T19:44:09.985Z,8.90
2022-11-02T19:54:03.834Z,9.10
2022-11-02T19:56:35.402Z,9.10
2022-11-02T20:01:47.545Z,8.70
2022-11-02T20:09:22.680Z,9.30
2022-11-02T20:19:45.540Z,9.50
2022-11-02T20:32:37.537Z,10.30
2022-11-02T20:57:50.494Z,10.60
2022-11-02T21:08:25.748Z,10.20
2022-11-02T21:21:22.381Z,10.20
2022-11-02T21:39:35.968Z,10.90
2022-11-02T21:42:04.475Z,10.20
2022-11-02T21:47:35.760Z,11.20
2022-11-02T21:50:18.028Z,10.20
2022-11-02T21:52:56.016Z,10.40
2022-11-02T22:06:35.002Z,10.70
2022-11-02T22:09:27.802Z,10.40
2022-11-02T22:17:49.522Z,10.40
2022-11-02T22:20:19.163Z,10.00
2022-11-02T22:30:18.691Z,10.20
2022-11-02T22:58:06.123Z,10.60
2022-11-02T23:08:24.828Z,10.30
2022-11-02T23:11:18.495Z,10.30
2022-11-02T23:14:05.686Z,10.70
2022-11-02T23:16:48.746Z,10.30
2022-11-02T23:19:31.586Z,9.20
2022-11-02T23:22:21.807Z,10.50
2022-11-02T23:25:09.257Z,10.50
2022-11-02T23:28:13.149Z,10.50
2022-11-02T23:31:00.344Z,10.70
2022-11-02T23:33:33.671Z,10.20
2022-11-02T23:39:03.091Z,10.40
2022-11-02T23:41:33.974Z,10.30
2022-11-02T23:46:53.551Z,10.20
